sensor_id;sensor_type;location;lat;lon;timestamp;pressure;altitude;pressure_sealevel;temperature;humidity
21879;BME280;27908;42.708;23.278;2023-02-11T00:01:15;62170.28;;;-3.35;89.30
21879;BME280;27908;42.708;23.278;2023-02-11T00:03:43;62181.25;;;-3.34;89.53
21879;BME280;27908;42.708;23.278;2023-02-11T00:06:10;62218.50;;;-3.39;89.56
21879;BME280;27908;42.708;23.278;2023-02-11T00:08:36;62135.88;;;-3.40;89.81
21879;BME280;27908;42.708;23.278;2023-02-11T00:11:02;62176.66;;;-3.41;89.76
21879;BME280;27908;42.708;23.278;2023-02-11T00:13:28;62191.63;;;-3.39;89.21
21879;BME280;27908;42.708;23.278;2023-02-11T00:15:54;62191.53;;;-3.44;89.75
21879;BME280;27908;42.708;23.278;2023-02-11T00:18:21;62149.66;;;-3.48;89.35
21879;BME280;27908;42.708;23.278;2023-02-11T00:20:46;62195.25;;;-3.57;89.42
21879;BME280;27908;42.708;23.278;2023-02-11T00:23:12;62165.50;;;-3.52;89.61
21879;BME280;27908;42.708;23.278;2023-02-11T00:25:42;62141.13;;;-3.52;89.82
21879;BME280;27908;42.708;23.278;2023-02-11T00:28:09;62157.06;;;-3.51;89.35
21879;BME280;27908;42.708;23.278;2023-02-11T00:30:34;62165.03;;;-3.50;89.38
21879;BME280;27908;42.708;23.278;2023-02-11T00:33:00;62182.41;;;-3.53;88.78
21879;BME280;27908;42.708;23.278;2023-02-11T00:35:26;62157.94;;;-3.57;88.48
21879;BME280;27908;42.708;23.278;2023-02-11T00:37:52;62141.41;;;-3.63;89.26
21879;BME280;27908;42.708;23.278;2023-02-11T00:40:18;62145.00;;;-3.57;88.71
21879;BME280;27908;42.708;23.278;2023-02-11T00:42:44;62190.13;;;-3.64;88.97
21879;BME280;27908;42.708;23.278;2023-02-11T00:45:09;62212.28;;;-3.53;88.26
21879;BME280;27908;42.708;23.278;2023-02-11T00:47:35;62148.31;;;-3.93;87.77
21879;BME280;27908;42.708;23.278;2023-02-11T00:50:01;62197.34;;;-3.53;88.55
21879;BME280;27908;42.708;23.278;2023-02-11T00:52:29;62150.28;;;-3.67;87.85
21879;BME280;27908;42.708;23.278;2023-02-11T00:54:55;62177.78;;;-3.59;88.20
21879;BME280;27908;42.708;23.278;2023-02-11T00:57:21;62212.16;;;-3.57;87.83
21879;BME280;27908;42.708;23.278;2023-02-11T00:59:46;62156.94;;;-3.58;88.04
21879;BME280;27908;42.708;23.278;2023-02-11T01:02:12;62133.94;;;-3.63;87.81
21879;BME280;27908;42.708;23.278;2023-02-11T01:04:37;62140.44;;;-3.62;88.34
21879;BME280;27908;42.708;23.278;2023-02-11T01:07:02;62122.41;;;-3.67;88.38
21879;BME280;27908;42.708;23.278;2023-02-11T01:09:28;62141.78;;;-3.70;88.17
21879;BME280;27908;42.708;23.278;2023-02-11T01:11:53;62118.88;;;-3.71;87.62
21879;BME280;27908;42.708;23.278;2023-02-11T01:14:19;62128.31;;;-3.71;88.26
21879;BME280;27908;42.708;23.278;2023-02-11T01:16:44;62121.31;;;-3.73;87.98
21879;BME280;27908;42.708;23.278;2023-02-11T01:19:09;62125.19;;;-3.79;88.86
21879;BME280;27908;42.708;23.278;2023-02-11T01:21:35;62121.03;;;-3.88;88.75
21879;BME280;27908;42.708;23.278;2023-02-11T01:24:00;62132.22;;;-4.01;89.33
21879;BME280;27908;42.708;23.278;2023-02-11T01:26:26;62082.25;;;-4.14;89.42
21879;BME280;27908;42.708;23.278;2023-02-11T01:28:51;62148.88;;;-4.14;90.24
21879;BME280;27908;42.708;23.278;2023-02-11T01:31:16;62144.69;;;-3.99;90.01
21879;BME280;27908;42.708;23.278;2023-02-11T01:33:42;62142.31;;;-3.94;89.56
21879;BME280;27908;42.708;23.278;2023-02-11T01:36:07;62151.75;;;-3.94;90.05
21879;BME280;27908;42.708;23.278;2023-02-11T01:38:33;62231.81;;;-3.94;89.80
21879;BME280;27908;42.708;23.278;2023-02-11T01:41:02;62107.69;;;-3.84;89.94
21879;BME280;27908;42.708;23.278;2023-02-11T01:43:32;62141.88;;;-3.90;89.08
21879;BME280;27908;42.708;23.278;2023-02-11T01:46:03;62136.88;;;-3.92;89.41
21879;BME280;27908;42.708;23.278;2023-02-11T01:48:38;62120.38;;;-3.96;89.64
21879;BME280;27908;42.708;23.278;2023-02-11T01:51:21;62098.63;;;-3.90;89.00
21879;BME280;27908;42.708;23.278;2023-02-11T01:53:49;62111.59;;;-4.14;89.93
21879;BME280;27908;42.708;23.278;2023-02-11T01:56:37;62162.97;;;-4.05;89.82
21879;BME280;27908;42.708;23.278;2023-02-11T01:59:28;62069.84;;;-4.14;90.01
21879;BME280;27908;42.708;23.278;2023-02-11T02:01:59;62084.44;;;-4.31;90.73
21879;BME280;27908;42.708;23.278;2023-02-11T02:04:32;62070.03;;;-4.30;91.42
21879;BME280;27908;42.708;23.278;2023-02-11T02:07:03;62101.97;;;-4.24;90.57
21879;BME280;27908;42.708;23.278;2023-02-11T02:09:35;62125.84;;;-4.22;90.89
21879;BME280;27908;42.708;23.278;2023-02-11T02:12:03;62126.72;;;-4.28;90.35
21879;BME280;27908;42.708;23.278;2023-02-11T02:14:28;62123.72;;;-4.29;90.14
21879;BME280;27908;42.708;23.278;2023-02-11T02:16:54;62155.28;;;-4.42;91.11
21879;BME280;27908;42.708;23.278;2023-02-11T02:33:32;62046.41;;;-4.70;93.41
21879;BME280;27908;42.708;23.278;2023-02-11T02:38:49;62082.19;;;-4.69;94.00
21879;BME280;27908;42.708;23.278;2023-02-11T02:41:20;62049.16;;;-4.82;93.35
21879;BME280;27908;42.708;23.278;2023-02-11T02:43:49;62044.84;;;-4.74;93.12
21879;BME280;27908;42.708;23.278;2023-02-11T02:46:30;62089.88;;;-4.81;93.57
21879;BME280;27908;42.708;23.278;2023-02-11T02:48:56;62041.09;;;-4.88;94.23
21879;BME280;27908;42.708;23.278;2023-02-11T03:06:14;62068.56;;;-4.80;94.58
21879;BME280;27908;42.708;23.278;2023-02-11T03:09:10;62018.91;;;-4.80;94.30
21879;BME280;27908;42.708;23.278;2023-02-11T03:11:37;62013.25;;;-4.91;93.61
21879;BME280;27908;42.708;23.278;2023-02-11T03:14:07;62021.94;;;-4.77;94.30
21879;BME280;27908;42.708;23.278;2023-02-11T03:16:35;62035.44;;;-4.98;94.51
21879;BME280;27908;42.708;23.278;2023-02-11T03:19:18;62041.56;;;-4.90;94.76
21879;BME280;27908;42.708;23.278;2023-02-11T03:21:45;62043.13;;;-4.86;94.34
21879;BME280;27908;42.708;23.278;2023-02-11T03:24:20;62056.41;;;-4.92;94.07
21879;BME280;27908;42.708;23.278;2023-02-11T03:26:56;62053.59;;;-4.83;94.39
21879;BME280;27908;42.708;23.278;2023-02-11T03:32:22;62004.69;;;-4.96;94.34
21879;BME280;27908;42.708;23.278;2023-02-11T03:34:53;62046.22;;;-5.04;94.17
21879;BME280;27908;42.708;23.278;2023-02-11T03:37:31;62016.63;;;-4.95;94.33
21879;BME280;27908;42.708;23.278;2023-02-11T03:40:06;62067.78;;;-4.93;94.46
21879;BME280;27908;42.708;23.278;2023-02-11T03:42:41;62008.09;;;-5.00;94.37
21879;BME280;27908;42.708;23.278;2023-02-11T03:45:11;62034.41;;;-4.99;94.89
21879;BME280;27908;42.708;23.278;2023-02-11T03:47:41;61979.47;;;-5.16;95.02
21879;BME280;27908;42.708;23.278;2023-02-11T03:50:11;62060.53;;;-5.07;94.55
21879;BME280;27908;42.708;23.278;2023-02-11T03:52:38;62041.09;;;-5.12;94.95
21879;BME280;27908;42.708;23.278;2023-02-11T03:55:08;62013.66;;;-5.19;95.16
21879;BME280;27908;42.708;23.278;2023-02-11T03:57:34;62010.22;;;-5.18;94.98
21879;BME280;27908;42.708;23.278;2023-02-11T04:00:00;61994.88;;;-5.16;95.47
21879;BME280;27908;42.708;23.278;2023-02-11T04:02:30;61981.69;;;-5.31;95.15
21879;BME280;27908;42.708;23.278;2023-02-11T04:04:58;62014.06;;;-5.48;95.68
21879;BME280;27908;42.708;23.278;2023-02-11T04:07:24;61964.31;;;-5.31;95.77
21879;BME280;27908;42.708;23.278;2023-02-11T04:09:49;61999.53;;;-5.31;95.99
21879;BME280;27908;42.708;23.278;2023-02-11T04:12:15;61998.97;;;-5.33;95.74
21879;BME280;27908;42.708;23.278;2023-02-11T04:14:40;61977.97;;;-5.42;96.04
21879;BME280;27908;42.708;23.278;2023-02-11T04:17:06;61989.97;;;-5.37;96.13
21879;BME280;27908;42.708;23.278;2023-02-11T04:19:32;61987.94;;;-5.39;96.77
21879;BME280;27908;42.708;23.278;2023-02-11T04:21:57;62004.72;;;-5.45;96.31
21879;BME280;27908;42.708;23.278;2023-02-11T04:24:23;61994.34;;;-5.43;96.31
21879;BME280;27908;42.708;23.278;2023-02-11T04:26:48;61991.59;;;-5.55;96.97
21879;BME280;27908;42.708;23.278;2023-02-11T04:29:14;61982.22;;;-5.52;97.72
21879;BME280;27908;42.708;23.278;2023-02-11T04:31:39;61970.91;;;-5.49;97.90
21879;BME280;27908;42.708;23.278;2023-02-11T04:34:05;61963.09;;;-5.42;97.44
21879;BME280;27908;42.708;23.278;2023-02-11T04:36:30;61985.72;;;-5.51;97.27
21879;BME280;27908;42.708;23.278;2023-02-11T04:38:55;61995.00;;;-5.35;96.89
21879;BME280;27908;42.708;23.278;2023-02-11T04:41:21;62022.81;;;-5.32;96.49
21879;BME280;27908;42.708;23.278;2023-02-11T04:43:46;61999.88;;;-5.37;97.11
21879;BME280;27908;42.708;23.278;2023-02-11T04:46:11;61979.94;;;-5.42;97.29
21879;BME280;27908;42.708;23.278;2023-02-11T04:48:37;61969.75;;;-5.57;97.65
21879;BME280;27908;42.708;23.278;2023-02-11T04:51:02;61987.34;;;-5.45;97.92
21879;BME280;27908;42.708;23.278;2023-02-11T04:53:28;61965.06;;;-5.42;97.90
21879;BME280;27908;42.708;23.278;2023-02-11T04:55:54;61977.72;;;-5.54;98.04
21879;BME280;27908;42.708;23.278;2023-02-11T04:58:19;62002.19;;;-5.47;98.22
21879;BME280;27908;42.708;23.278;2023-02-11T05:00:45;61940.75;;;-5.68;97.46
21879;BME280;27908;42.708;23.278;2023-02-11T05:03:11;61984.75;;;-5.50;97.01
21879;BME280;27908;42.708;23.278;2023-02-11T05:05:38;62013.09;;;-5.46;97.12
21879;BME280;27908;42.708;23.278;2023-02-11T05:08:05;61977.22;;;-5.55;96.69
21879;BME280;27908;42.708;23.278;2023-02-11T05:10:30;61961.72;;;-5.60;97.30
21879;BME280;27908;42.708;23.278;2023-02-11T05:12:56;62008.38;;;-5.58;96.81
21879;BME280;27908;42.708;23.278;2023-02-11T05:15:21;61978.22;;;-5.54;97.47
21879;BME280;27908;42.708;23.278;2023-02-11T05:17:47;61965.44;;;-5.49;96.72
21879;BME280;27908;42.708;23.278;2023-02-11T05:20:13;61977.28;;;-5.52;96.98
21879;BME280;27908;42.708;23.278;2023-02-11T05:22:38;62009.47;;;-5.55;96.88
21879;BME280;27908;42.708;23.278;2023-02-11T05:25:04;61981.22;;;-5.53;96.35
21879;BME280;27908;42.708;23.278;2023-02-11T05:27:29;61985.78;;;-5.73;96.34
21879;BME280;27908;42.708;23.278;2023-02-11T05:29:55;61949.38;;;-5.58;96.18
21879;BME280;27908;42.708;23.278;2023-02-11T05:32:20;61942.72;;;-5.69;95.69
21879;BME280;27908;42.708;23.278;2023-02-11T05:34:46;62005.47;;;-5.56;95.18
21879;BME280;27908;42.708;23.278;2023-02-11T05:37:11;61988.41;;;-5.66;95.68
21879;BME280;27908;42.708;23.278;2023-02-11T05:39:37;61912.94;;;-5.71;95.73
21879;BME280;27908;42.708;23.278;2023-02-11T05:42:02;61991.75;;;-5.72;95.99
21879;BME280;27908;42.708;23.278;2023-02-11T05:44:28;61961.50;;;-5.72;96.04
21879;BME280;27908;42.708;23.278;2023-02-11T05:46:53;61977.88;;;-5.71;96.25
21879;BME280;27908;42.708;23.278;2023-02-11T05:49:18;61924.22;;;-5.77;96.48
21879;BME280;27908;42.708;23.278;2023-02-11T05:51:44;61919.03;;;-5.90;98.71
21879;BME280;27908;42.708;23.278;2023-02-11T05:54:09;61895.00;;;-6.01;100.00
21879;BME280;27908;42.708;23.278;2023-02-11T05:56:35;61964.88;;;-6.01;100.00
21879;BME280;27908;42.708;23.278;2023-02-11T05:59:00;61974.56;;;-5.89;100.00
21879;BME280;27908;42.708;23.278;2023-02-11T06:01:26;61929.25;;;-5.99;100.00
21879;BME280;27908;42.708;23.278;2023-02-11T06:03:51;61941.34;;;-5.90;100.00
21879;BME280;27908;42.708;23.278;2023-02-11T06:06:17;61972.06;;;-5.89;100.00
21879;BME280;27908;42.708;23.278;2023-02-11T06:08:42;61954.53;;;-5.99;100.00
21879;BME280;27908;42.708;23.278;2023-02-11T06:11:08;61969.63;;;-5.86;100.00
21879;BME280;27908;42.708;23.278;2023-02-11T06:13:34;61935.00;;;-5.84;100.00
21879;BME280;27908;42.708;23.278;2023-02-11T06:16:00;61953.78;;;-5.87;100.00
21879;BME280;27908;42.708;23.278;2023-02-11T06:18:27;61925.34;;;-5.96;100.00
21879;BME280;27908;42.708;23.278;2023-02-11T06:20:52;61950.66;;;-5.68;100.00
21879;BME280;27908;42.708;23.278;2023-02-11T06:23:18;61974.50;;;-5.67;100.00
21879;BME280;27908;42.708;23.278;2023-02-11T06:25:43;61967.09;;;-5.65;100.00
21879;BME280;27908;42.708;23.278;2023-02-11T06:28:08;61981.84;;;-5.72;100.00
21879;BME280;27908;42.708;23.278;2023-02-11T06:30:36;61964.31;;;-5.55;100.00
21879;BME280;27908;42.708;23.278;2023-02-11T06:33:01;61994.13;;;-5.53;99.85
21879;BME280;27908;42.708;23.278;2023-02-11T06:35:28;62005.66;;;-5.46;100.00
21879;BME280;27908;42.708;23.278;2023-02-11T06:37:53;61981.47;;;-5.41;99.67
21879;BME280;27908;42.708;23.278;2023-02-11T06:40:19;61986.53;;;-5.36;99.61
21879;BME280;27908;42.708;23.278;2023-02-11T06:42:45;62017.81;;;-5.34;98.94
21879;BME280;27908;42.708;23.278;2023-02-11T06:45:11;61988.69;;;-5.27;98.78
21879;BME280;27908;42.708;23.278;2023-02-11T06:47:38;61996.16;;;-5.27;98.48
21879;BME280;27908;42.708;23.278;2023-02-11T06:50:05;62000.75;;;-5.20;97.80
21879;BME280;27908;42.708;23.278;2023-02-11T06:52:31;62007.53;;;-5.28;98.28
21879;BME280;27908;42.708;23.278;2023-02-11T06:54:57;62028.69;;;-5.12;97.29
21879;BME280;27908;42.708;23.278;2023-02-11T06:57:22;61998.00;;;-5.08;97.98
21879;BME280;27908;42.708;23.278;2023-02-11T06:59:48;62026.41;;;-5.02;97.63
21879;BME280;27908;42.708;23.278;2023-02-11T07:02:13;62042.66;;;-4.84;97.86
21879;BME280;27908;42.708;23.278;2023-02-11T07:04:38;62060.59;;;-4.81;97.36
21879;BME280;27908;42.708;23.278;2023-02-11T07:07:04;62047.50;;;-4.64;96.51
21879;BME280;27908;42.708;23.278;2023-02-11T07:09:29;62058.97;;;-4.63;95.91
21879;BME280;27908;42.708;23.278;2023-02-11T07:11:55;62097.97;;;-4.49;95.75
21879;BME280;27908;42.708;23.278;2023-02-11T07:14:20;62051.56;;;-4.34;95.77
21879;BME280;27908;42.708;23.278;2023-02-11T07:16:45;62098.31;;;-4.32;94.77
21879;BME280;27908;42.708;23.278;2023-02-11T07:19:11;62125.00;;;-4.16;94.15
21879;BME280;27908;42.708;23.278;2023-02-11T07:21:36;62121.19;;;-4.07;94.09
21879;BME280;27908;42.708;23.278;2023-02-11T07:24:05;62115.38;;;-3.98;94.04
21879;BME280;27908;42.708;23.278;2023-02-11T07:26:31;62168.47;;;-3.78;93.46
21879;BME280;27908;42.708;23.278;2023-02-11T07:28:57;62159.25;;;-3.65;93.06
21879;BME280;27908;42.708;23.278;2023-02-11T07:31:24;62200.94;;;-3.47;91.34
21879;BME280;27908;42.708;23.278;2023-02-11T07:33:52;62202.09;;;-3.38;92.06
21879;BME280;27908;42.708;23.278;2023-02-11T07:36:18;62215.28;;;-3.25;91.55
21879;BME280;27908;42.708;23.278;2023-02-11T07:38:44;62157.63;;;-3.19;90.59
21879;BME280;27908;42.708;23.278;2023-02-11T07:41:13;62201.63;;;-3.10;90.37
21879;BME280;27908;42.708;23.278;2023-02-11T07:43:40;62205.78;;;-3.01;89.70
21879;BME280;27908;42.708;23.278;2023-02-11T07:46:07;62228.19;;;-3.01;90.32
21879;BME280;27908;42.708;23.278;2023-02-11T07:48:33;62214.41;;;-2.92;89.84
21879;BME280;27908;42.708;23.278;2023-02-11T07:51:10;62235.34;;;-2.91;89.64
21879;BME280;27908;42.708;23.278;2023-02-11T07:53:36;62211.44;;;-2.90;90.19
21879;BME280;27908;42.708;23.278;2023-02-11T07:56:03;62315.75;;;-2.81;89.48
21879;BME280;27908;42.708;23.278;2023-02-11T07:58:29;62230.47;;;-2.84;90.15
21879;BME280;27908;42.708;23.278;2023-02-11T08:01:00;62261.63;;;-2.71;88.69
21879;BME280;27908;42.708;23.278;2023-02-11T08:03:25;62208.94;;;-2.64;88.49
21879;BME280;27908;42.708;23.278;2023-02-11T08:05:51;62240.97;;;-2.57;88.54
21879;BME280;27908;42.708;23.278;2023-02-11T08:08:17;62225.78;;;-2.40;88.03
21879;BME280;27908;42.708;23.278;2023-02-11T08:10:42;62310.81;;;-2.25;88.17
21879;BME280;27908;42.708;23.278;2023-02-11T08:13:08;62286.94;;;-2.22;87.22
21879;BME280;27908;42.708;23.278;2023-02-11T08:15:33;62279.22;;;-2.37;87.16
21879;BME280;27908;42.708;23.278;2023-02-11T08:17:58;62281.75;;;-2.34;87.57
21879;BME280;27908;42.708;23.278;2023-02-11T08:20:24;62275.28;;;-2.33;87.89
21879;BME280;27908;42.708;23.278;2023-02-11T08:22:49;62282.56;;;-2.16;89.12
21879;BME280;27908;42.708;23.278;2023-02-11T08:25:15;62306.16;;;-2.08;86.97
21879;BME280;27908;42.708;23.278;2023-02-11T08:27:40;62330.38;;;-1.92;86.46
21879;BME280;27908;42.708;23.278;2023-02-11T08:30:06;62323.59;;;-1.81;85.58
21879;BME280;27908;42.708;23.278;2023-02-11T08:32:33;62336.88;;;-1.64;85.11
21879;BME280;27908;42.708;23.278;2023-02-11T08:34:59;62356.59;;;-1.49;84.30
21879;BME280;27908;42.708;23.278;2023-02-11T08:37:25;62375.28;;;-1.36;83.28
21879;BME280;27908;42.708;23.278;2023-02-11T08:39:50;62400.88;;;-1.31;82.46
21879;BME280;27908;42.708;23.278;2023-02-11T08:42:17;62397.53;;;-1.22;82.52
21879;BME280;27908;42.708;23.278;2023-02-11T08:44:42;62398.78;;;-1.35;82.46
21879;BME280;27908;42.708;23.278;2023-02-11T08:47:08;62392.59;;;-1.19;83.27
21879;BME280;27908;42.708;23.278;2023-02-11T08:49:33;62380.09;;;-1.19;83.31
21879;BME280;27908;42.708;23.278;2023-02-11T08:51:59;62378.38;;;-1.02;82.42
21879;BME280;27908;42.708;23.278;2023-02-11T08:54:29;62413.44;;;-0.97;81.79
21879;BME280;27908;42.708;23.278;2023-02-11T08:56:55;62409.00;;;-0.94;79.88
21879;BME280;27908;42.708;23.278;2023-02-11T08:59:21;62395.94;;;-0.68;79.71
21879;BME280;27908;42.708;23.278;2023-02-11T09:01:46;62443.63;;;-0.55;77.30
21879;BME280;27908;42.708;23.278;2023-02-11T09:04:12;62520.78;;;-0.19;80.95
21879;BME280;27908;42.708;23.278;2023-02-11T09:06:38;62490.44;;;-0.10;75.79
21879;BME280;27908;42.708;23.278;2023-02-11T09:09:04;62487.06;;;-0.01;74.55
21879;BME280;27908;42.708;23.278;2023-02-11T09:11:32;62525.88;;;0.15;73.18
21879;BME280;27908;42.708;23.278;2023-02-11T09:13:59;62510.41;;;0.19;71.55
21879;BME280;27908;42.708;23.278;2023-02-11T09:16:27;62571.00;;;0.20;71.01
21879;BME280;27908;42.708;23.278;2023-02-11T09:18:55;62564.34;;;0.40;73.15
21879;BME280;27908;42.708;23.278;2023-02-11T09:21:21;62564.16;;;0.59;71.58
21879;BME280;27908;42.708;23.278;2023-02-11T09:23:47;62498.88;;;0.18;68.35
21879;BME280;27908;42.708;23.278;2023-02-11T09:26:21;62504.63;;;0.33;67.35
21879;BME280;27908;42.708;23.278;2023-02-11T09:28:47;62538.97;;;0.52;67.70
21879;BME280;27908;42.708;23.278;2023-02-11T09:31:15;62589.88;;;0.70;66.34
21879;BME280;27908;42.708;23.278;2023-02-11T09:33:42;62602.91;;;0.70;66.92
21879;BME280;27908;42.708;23.278;2023-02-11T09:36:16;62581.72;;;0.62;65.22
21879;BME280;27908;42.708;23.278;2023-02-11T09:38:43;62555.41;;;0.46;66.38
21879;BME280;27908;42.708;23.278;2023-02-11T09:44:01;62553.25;;;0.68;65.27
21879;BME280;27908;42.708;23.278;2023-02-11T09:46:39;62619.94;;;0.70;63.51
21879;BME280;27908;42.708;23.278;2023-02-11T09:49:06;62556.91;;;0.76;63.96
21879;BME280;27908;42.708;23.278;2023-02-11T09:51:39;62600.53;;;0.77;64.05
21879;BME280;27908;42.708;23.278;2023-02-11T09:54:17;62605.25;;;0.89;61.35
21879;BME280;27908;42.708;23.278;2023-02-11T09:56:44;62797.56;;;1.32;62.27
21879;BME280;27908;42.708;23.278;2023-02-11T09:59:14;62646.09;;;1.36;60.21
21879;BME280;27908;42.708;23.278;2023-02-11T10:01:53;62653.16;;;1.72;59.51
21879;BME280;27908;42.708;23.278;2023-02-11T10:12:57;62710.47;;;2.11;55.14
21879;BME280;27908;42.708;23.278;2023-02-11T10:15:33;62750.81;;;2.20;56.87
21879;BME280;27908;42.708;23.278;2023-02-11T10:23:36;62745.50;;;2.35;56.00
21879;BME280;27908;42.708;23.278;2023-02-11T10:26:11;62752.75;;;2.15;54.73
21879;BME280;27908;42.708;23.278;2023-02-11T10:28:38;62748.78;;;2.52;54.22
21879;BME280;27908;42.708;23.278;2023-02-11T10:31:05;62743.22;;;2.49;53.67
21879;BME280;27908;42.708;23.278;2023-02-11T10:36:04;62814.88;;;3.02;53.80
21879;BME280;27908;42.708;23.278;2023-02-11T10:38:29;62856.84;;;3.16;53.26
21879;BME280;27908;42.708;23.278;2023-02-11T10:40:55;62866.31;;;3.44;52.73
21879;BME280;27908;42.708;23.278;2023-02-11T10:43:25;62908.09;;;3.77;50.16
21879;BME280;27908;42.708;23.278;2023-02-11T10:45:52;62930.78;;;3.77;51.20
21879;BME280;27908;42.708;23.278;2023-02-11T10:53:33;62962.84;;;4.37;49.12
21879;BME280;27908;42.708;23.278;2023-02-11T10:56:00;63046.25;;;4.84;48.24
21879;BME280;27908;42.708;23.278;2023-02-11T10:59:00;62966.06;;;4.14;49.46
21879;BME280;27908;42.708;23.278;2023-02-11T11:01:47;62941.34;;;3.78;50.35
21879;BME280;27908;42.708;23.278;2023-02-11T11:07:12;63048.66;;;4.76;47.92
21879;BME280;27908;42.708;23.278;2023-02-11T11:12:30;63014.59;;;4.94;46.77
21879;BME280;27908;42.708;23.278;2023-02-11T11:14:59;63026.97;;;5.14;47.55
21879;BME280;27908;42.708;23.278;2023-02-11T11:17:25;63002.00;;;4.97;48.32
21879;BME280;27908;42.708;23.278;2023-02-11T11:20:12;63029.16;;;4.89;45.59
21879;BME280;27908;42.708;23.278;2023-02-11T11:22:38;63081.94;;;5.47;46.09
21879;BME280;27908;42.708;23.278;2023-02-11T11:25:04;63101.75;;;5.54;45.57
21879;BME280;27908;42.708;23.278;2023-02-11T11:27:29;63056.63;;;5.42;44.95
21879;BME280;27908;42.708;23.278;2023-02-11T11:29:55;63095.97;;;5.75;46.03
21879;BME280;27908;42.708;23.278;2023-02-11T11:32:21;63109.41;;;5.62;46.80
21879;BME280;27908;42.708;23.278;2023-02-11T11:34:50;63117.22;;;5.76;46.04
21879;BME280;27908;42.708;23.278;2023-02-11T11:42:41;63168.19;;;5.04;46.36
21879;BME280;27908;42.708;23.278;2023-02-11T11:47:51;63018.75;;;4.67;48.04
21879;BME280;27908;42.708;23.278;2023-02-11T11:50:44;62959.88;;;4.42;47.83
21879;BME280;27908;42.708;23.278;2023-02-11T11:53:20;63079.88;;;5.06;46.71
21879;BME280;27908;42.708;23.278;2023-02-11T11:55:51;63093.44;;;5.39;45.82
21879;BME280;27908;42.708;23.278;2023-02-11T11:58:21;63028.88;;;5.06;45.97
21879;BME280;27908;42.708;23.278;2023-02-11T12:01:00;63121.44;;;5.17;45.42
21879;BME280;27908;42.708;23.278;2023-02-11T12:26:27;63075.41;;;5.51;43.75
21879;BME280;27908;42.708;23.278;2023-02-11T12:43:36;63136.06;;;5.87;43.83
21879;BME280;27908;42.708;23.278;2023-02-11T12:46:07;63152.50;;;6.08;43.89
21879;BME280;27908;42.708;23.278;2023-02-11T12:51:39;63086.06;;;5.54;44.61
21879;BME280;27908;42.708;23.278;2023-02-11T12:58:00;63102.72;;;5.89;44.03
21879;BME280;27908;42.708;23.278;2023-02-11T13:01:04;63089.16;;;5.59;44.64
21879;BME280;27908;42.708;23.278;2023-02-11T13:26:26;63092.31;;;5.30;42.55
21879;BME280;27908;42.708;23.278;2023-02-11T13:31:26;63098.88;;;5.66;41.71
21879;BME280;27908;42.708;23.278;2023-02-11T13:34:22;63164.00;;;5.97;42.19
21879;BME280;27908;42.708;23.278;2023-02-11T13:37:33;63126.03;;;5.56;40.27
21879;BME280;27908;42.708;23.278;2023-02-11T13:40:21;63084.59;;;5.57;40.04
21879;BME280;27908;42.708;23.278;2023-02-11T13:42:55;63077.88;;;5.46;39.60
21879;BME280;27908;42.708;23.278;2023-02-11T13:45:32;63089.50;;;5.47;40.09
21879;BME280;27908;42.708;23.278;2023-02-11T13:48:01;63099.06;;;5.42;40.55
21879;BME280;27908;42.708;23.278;2023-02-11T13:50:45;63082.13;;;5.23;41.07
21879;BME280;27908;42.708;23.278;2023-02-11T13:53:51;62984.75;;;4.90;42.72
21879;BME280;27908;42.708;23.278;2023-02-11T13:56:35;62997.34;;;4.88;42.94
21879;BME280;27908;42.708;23.278;2023-02-11T14:02:32;63043.03;;;5.07;41.21
21879;BME280;27908;42.708;23.278;2023-02-11T14:05:30;63041.53;;;4.72;41.60
21879;BME280;27908;42.708;23.278;2023-02-11T14:08:57;63051.31;;;4.86;41.75
21879;BME280;27908;42.708;23.278;2023-02-11T14:12:21;63033.19;;;4.88;42.44
21879;BME280;27908;42.708;23.278;2023-02-11T14:17:32;63017.47;;;4.83;43.08
21879;BME280;27908;42.708;23.278;2023-02-11T14:42:53;62979.50;;;4.36;45.09
21879;BME280;27908;42.708;23.278;2023-02-11T14:45:23;62959.72;;;4.29;45.88
21879;BME280;27908;42.708;23.278;2023-02-11T14:48:05;62957.03;;;4.17;47.35
21879;BME280;27908;42.708;23.278;2023-02-11T14:53:57;62936.72;;;4.07;46.78
21879;BME280;27908;42.708;23.278;2023-02-11T15:03:27;62963.41;;;4.04;46.45
21879;BME280;27908;42.708;23.278;2023-02-11T15:09:50;62962.78;;;3.96;47.35
21879;BME280;27908;42.708;23.278;2023-02-11T15:12:35;62866.97;;;3.91;47.18
21879;BME280;27908;42.708;23.278;2023-02-11T15:18:55;62918.28;;;3.85;47.11
21879;BME280;27908;42.708;23.278;2023-02-11T15:24:32;62982.34;;;4.24;47.35
21879;BME280;27908;42.708;23.278;2023-02-11T15:29:48;62944.47;;;4.20;45.84
21879;BME280;27908;42.708;23.278;2023-02-11T15:32:22;62971.13;;;4.14;46.92
21879;BME280;27908;42.708;23.278;2023-02-11T15:34:50;62919.97;;;3.98;46.58
21879;BME280;27908;42.708;23.278;2023-02-11T15:37:27;62914.16;;;3.78;46.34
21879;BME280;27908;42.708;23.278;2023-02-11T15:39:54;62891.34;;;3.68;46.83
21879;BME280;27908;42.708;23.278;2023-02-11T15:42:28;62913.97;;;3.66;47.68
21879;BME280;27908;42.708;23.278;2023-02-11T15:45:42;62860.13;;;3.33;48.42
21879;BME280;27908;42.708;23.278;2023-02-11T15:48:21;62888.13;;;3.21;48.54
21879;BME280;27908;42.708;23.278;2023-02-11T15:50:50;62810.88;;;3.03;49.33
21879;BME280;27908;42.708;23.278;2023-02-11T15:56:06;62856.00;;;2.93;50.58
21879;BME280;27908;42.708;23.278;2023-02-11T15:58:38;62839.22;;;2.82;50.07
21879;BME280;27908;42.708;23.278;2023-02-11T16:01:04;62776.25;;;2.74;50.45
21879;BME280;27908;42.708;23.278;2023-02-11T16:03:31;62729.97;;;2.39;51.93
21879;BME280;27908;42.708;23.278;2023-02-11T16:06:23;62761.34;;;2.52;51.42
21879;BME280;27908;42.708;23.278;2023-02-11T16:11:34;62731.81;;;2.26;54.04
21879;BME280;27908;42.708;23.278;2023-02-11T16:14:00;62726.09;;;2.13;54.37
21879;BME280;27908;42.708;23.278;2023-02-11T16:16:29;62723.44;;;2.04;54.05
21879;BME280;27908;42.708;23.278;2023-02-11T16:18:58;62702.66;;;1.91;54.70
21879;BME280;27908;42.708;23.278;2023-02-11T16:21:33;62677.78;;;1.74;54.68
21879;BME280;27908;42.708;23.278;2023-02-11T16:24:00;62718.47;;;1.75;55.08
21879;BME280;27908;42.708;23.278;2023-02-11T16:26:30;62703.78;;;1.68;55.49